Time;durP1;ratioP1;P1;durP2;ratioP2;P2;SDS_P1;SDS_P2;PMS_P1;PMS_P2;Temp;Humidity;BMP_temperature;BMP_pressure;BME280_temperature;BME280_humidity;BME280_pressure;Samples;Min_cycle;Max_cycle;Signal;HPM_P1;HPM_P2
2021/05/19 00:00:28;;;;;;;3.77;1.40;;;;;;;8.12;86.65;95864.28;1048986;28;20024;-48
2021/05/19 00:00:59;;;;;;;4.77;1.40;;;;;;;8.12;86.82;95859.03;1053130;28;20028;-46
2021/05/19 00:01:29;;;;;;;3.10;1.37;;;;;;;8.11;87.15;95856.59;1053292;28;20020;-48
2021/05/19 00:02:00;;;;;;;2.53;1.07;;;;;;;8.12;87.02;95856.41;1053487;28;20047;-45
2021/05/19 00:02:32;;;;;;;2.30;1.13;;;;;;;8.14;86.95;95862.25;1053621;28;20020;-46
2021/05/19 00:03:02;;;;;;;3.33;1.25;;;;;;;8.13;87.32;95860.63;1053493;28;20020;-45
2021/05/19 00:03:33;;;;;;;2.37;1.10;;;;;;;8.11;87.61;95861.81;1053561;28;20024;-46
2021/05/19 00:04:04;;;;;;;5.03;1.33;;;;;;;8.10;87.05;95863.63;1053435;28;20487;-46
2021/05/19 00:04:35;;;;;;;5.13;1.33;;;;;;;8.04;87.15;95856.50;1053482;28;20081;-46
2021/05/19 00:05:06;;;;;;;3.27;1.30;;;;;;;8.05;87.46;95859.91;1053663;28;20081;-48
2021/05/19 00:05:36;;;;;;;3.90;1.17;;;;;;;8.11;87.08;95856.59;1053192;28;20070;-49
2021/05/19 00:06:06;;;;;;;4.00;1.10;;;;;;;8.06;86.75;95864.19;1053344;28;20357;-46
2021/05/19 00:06:37;;;;;;;2.97;1.13;;;;;;;7.97;87.13;95863.47;1053065;28;20040;-48
2021/05/19 00:07:07;;;;;;;5.83;1.30;;;;;;;7.98;87.56;95863.28;1053181;28;20100;-47
2021/05/19 00:07:38;;;;;;;4.73;1.33;;;;;;;8.03;87.27;95854.06;1053127;28;20019;-47
2021/05/19 00:08:09;;;;;;;3.07;1.30;;;;;;;8.04;87.34;95860.94;1053274;28;20115;-45
2021/05/19 00:08:42;;;;;;;3.40;1.45;;;;;;;8.07;87.02;95852.69;1053274;28;20032;-48
2021/05/19 00:09:13;;;;;;;2.73;1.10;;;;;;;8.10;87.45;95863.63;1048863;28;20437;-45
2021/05/19 00:09:44;;;;;;;2.67;1.20;;;;;;;8.05;87.35;95860.75;1048977;28;20030;-46
2021/05/19 00:10:14;;;;;;;3.30;1.23;;;;;;;8.11;87.23;95857.38;1048314;28;20028;-48
2021/05/19 00:10:45;;;;;;;4.37;1.40;;;;;;;7.95;87.11;95858.41;1049496;28;20044;-46
2021/05/19 00:11:16;;;;;;;3.30;1.60;;;;;;;7.98;87.63;95854.63;1053509;28;20289;-50
2021/05/19 00:11:47;;;;;;;4.20;1.30;;;;;;;8.01;87.68;95856.88;1049028;28;20274;-49
2021/05/19 00:12:18;;;;;;;3.83;1.27;;;;;;;7.97;87.66;95855.59;1044859;28;20370;-47
2021/05/19 00:12:48;;;;;;;5.03;1.30;;;;;;;8.01;87.59;95852.44;1040805;28;20268;-46
2021/05/19 00:13:19;;;;;;;3.63;1.30;;;;;;;8.07;86.84;95856.13;1040814;28;20029;-46
2021/05/19 00:13:50;;;;;;;3.90;1.20;;;;;;;7.99;87.43;95859.69;1049041;28;20504;-49
2021/05/19 00:14:21;;;;;;;2.92;1.08;;;;;;;8.04;87.28;95855.69;1053114;28;20513;-46
2021/05/19 00:14:51;;;;;;;3.20;1.30;;;;;;;8.06;87.14;95858.94;1053554;28;20028;-48
2021/05/19 00:15:22;;;;;;;4.40;1.30;;;;;;;7.93;87.66;95865.66;1053503;28;20102;-47
2021/05/19 00:15:52;;;;;;;3.27;1.20;;;;;;;7.94;87.99;95862.06;1053063;28;20047;-47
2021/05/19 00:16:23;;;;;;;3.10;1.10;;;;;;;7.85;88.65;95857.09;1044604;28;20071;-47
2021/05/19 00:16:53;;;;;;;4.97;1.60;;;;;;;7.88;88.54;95859.34;1044875;28;20017;-48
2021/05/19 00:17:24;;;;;;;3.37;1.30;;;;;;;7.93;88.00;95857.00;1044864;28;20119;-47
2021/05/19 00:17:54;;;;;;;2.77;1.10;;;;;;;7.91;88.54;95858.97;1049291;28;20024;-46
2021/05/19 00:18:25;;;;;;;5.17;1.30;;;;;;;7.90;88.81;95857.38;1053450;28;20472;-46
2021/05/19 00:18:55;;;;;;;5.57;1.30;;;;;;;7.94;88.85;95853.34;1053628;28;20027;-48
2021/05/19 00:19:26;;;;;;;5.23;1.30;;;;;;;7.93;89.30;95859.63;1053502;28;20380;-47
2021/05/19 00:19:56;;;;;;;4.23;1.30;;;;;;;7.94;88.72;95861.22;1053541;28;20020;-47
2021/05/19 00:20:27;;;;;;;4.40;1.50;;;;;;;7.94;88.50;95862.06;1053443;28;20457;-45
2021/05/19 00:20:57;;;;;;;6.17;1.60;;;;;;;7.99;88.30;95854.44;1053578;28;20051;-46
2021/05/19 00:21:28;;;;;;;7.93;1.57;;;;;;;8.04;87.53;95853.88;1053489;28;20024;-48
2021/05/19 00:21:58;;;;;;;4.23;1.30;;;;;;;7.93;88.35;95857.00;1053595;28;20020;-46
2021/05/19 00:22:29;;;;;;;2.80;1.30;;;;;;;7.97;88.86;95861.69;1053559;28;20376;-47
2021/05/19 00:22:59;;;;;;;3.10;1.23;;;;;;;7.95;88.81;95862.84;1053053;28;20035;-49
2021/05/19 00:23:30;;;;;;;3.17;1.33;;;;;;;8.00;88.31;95855.22;1049011;28;20512;-46
2021/05/19 00:24:02;;;;;;;4.90;1.60;;;;;;;7.97;88.38;95863.47;1048844;28;20020;-47
2021/05/19 00:24:32;;;;;;;5.63;1.27;;;;;;;7.83;88.76;95855.47;1048786;28;20021;-48
2021/05/19 00:25:04;;;;;;;3.77;1.37;;;;;;;7.86;89.25;95858.72;1049253;28;20052;-47
2021/05/19 00:25:34;;;;;;;3.30;1.40;;;;;;;7.82;89.69;95859.09;1053246;28;20107;-46
2021/05/19 00:26:05;;;;;;;3.87;1.43;;;;;;;7.78;90.34;95857.03;1053678;28;20016;-47
2021/05/19 00:26:35;;;;;;;3.67;1.27;;;;;;;7.79;90.25;95858.66;1052948;28;20024;-47
2021/05/19 00:27:06;;;;;;;3.93;1.37;;;;;;;7.85;89.55;95855.28;1048972;28;20013;-46
2021/05/19 00:27:37;;;;;;;2.80;1.40;;;;;;;7.73;90.13;95854.13;1048956;28;20017;-47
2021/05/19 00:28:07;;;;;;;3.90;1.50;;;;;;;7.74;90.24;95851.31;1044814;28;20411;-46
2021/05/19 00:28:38;;;;;;;2.83;1.20;;;;;;;7.80;90.24;95855.03;1049034;28;20389;-48
2021/05/19 00:29:12;;;;;;;2.90;1.23;;;;;;;7.75;90.10;95858.19;1053369;28;20054;-45
2021/05/19 00:29:42;;;;;;;4.53;1.33;;;;;;;7.72;90.30;95852.50;1053058;28;20129;-45
2021/05/19 00:30:17;;;;;;;4.40;1.50;;;;;;;7.75;89.81;95858.19;1053321;28;20107;-48
2021/05/19 00:30:50;;;;;;;3.15;1.30;;;;;;;7.72;90.05;95857.75;1053466;28;20380;-45
2021/05/19 00:31:23;;;;;;;3.88;1.42;;;;;;;7.78;90.17;95851.78;1053326;28;20019;-49
2021/05/19 00:31:54;;;;;;;5.28;1.30;;;;;;;7.81;89.73;95856.66;1053499;28;20031;-49
2021/05/19 00:32:24;;;;;;;4.73;1.47;;;;;;;7.78;89.92;95855.19;1053474;28;20026;-46
2021/05/19 00:32:55;;;;;;;4.00;1.20;;;;;;;7.80;89.72;95855.03;1053550;28;20076;-46
2021/05/19 00:33:26;;;;;;;2.77;1.30;;;;;;;7.86;89.85;95856.09;1053456;28;20042;-47
2021/05/19 00:33:57;;;;;;;3.10;1.33;;;;;;;7.89;89.60;95848.66;1053429;28;20024;-47
2021/05/19 00:34:28;;;;;;;3.22;1.30;;;;;;;7.80;89.71;95853.22;1052846;28;20107;-47
2021/05/19 00:34:58;;;;;;;4.00;1.30;;;;;;;7.61;90.50;95851.19;1053196;28;20011;-46
2021/05/19 00:35:29;;;;;;;3.90;1.40;;;;;;;7.69;90.89;95851.06;1053063;28;20012;-45
2021/05/19 00:35:59;;;;;;;3.97;1.40;;;;;;;7.74;90.43;95850.50;1053120;28;20063;-49
2021/05/19 00:36:30;;;;;;;4.13;1.30;;;;;;;7.70;90.69;95849.25;1053179;28;20032;-46
2021/05/19 00:37:00;;;;;;;3.93;1.60;;;;;;;7.63;91.12;95847.38;1053454;28;20024;-46
2021/05/19 00:37:31;;;;;;;3.77;1.37;;;;;;;7.71;90.89;95848.25;1053310;28;20028;-46
2021/05/19 00:38:01;;;;;;;4.13;1.80;;;;;;;7.68;91.04;95852.06;1049086;28;20131;-46
2021/05/19 00:38:32;;;;;;;5.50;1.30;;;;;;;7.69;91.00;95847.66;1048933;28;20028;-46
2021/05/19 00:39:08;;;;;;;3.57;1.40;;;;;;;7.74;90.84;95851.31;1048877;28;20047;-46
2021/05/19 00:39:38;;;;;;;5.93;1.33;;;;;;;7.75;90.84;95858.19;1049961;28;20516;-46
2021/05/19 00:40:11;;;;;;;3.80;1.40;;;;;;;7.74;90.65;95853.13;1053240;28;20085;-45
2021/05/19 00:40:42;;;;;;;3.83;1.40;;;;;;;7.73;90.34;95854.13;1040670;28;20067;-47
2021/05/19 00:41:13;;;;;;;3.50;1.40;;;;;;;7.71;90.86;95851.69;1040361;28;20107;-47
2021/05/19 00:41:44;;;;;;;4.00;1.40;;;;;;;7.68;90.85;95846.81;1041016;28;20060;-45
2021/05/19 00:42:15;;;;;;;4.50;1.40;;;;;;;7.63;91.46;95846.56;1041511;28;20116;-45
2021/05/19 00:42:46;;;;;;;3.30;1.30;;;;;;;7.65;91.68;95857.66;1053128;28;20050;-47
2021/05/19 00:43:16;;;;;;;3.63;1.50;;;;;;;7.67;91.62;95850.44;1053143;28;20372;-47
2021/05/19 00:43:47;;;;;;;3.40;1.20;;;;;;;7.69;91.01;95853.69;1053141;28;20016;-49
2021/05/19 00:44:17;;;;;;;4.30;1.60;;;;;;;7.69;91.32;95851.06;1053005;28;20499;-46
2021/05/19 00:44:48;;;;;;;4.63;1.60;;;;;;;7.75;91.07;95847.72;1053157;28;20023;-46
2021/05/19 00:45:18;;;;;;;3.10;1.33;;;;;;;7.65;91.48;95847.19;1053179;28;20020;-46
2021/05/19 00:45:49;;;;;;;3.83;1.37;;;;;;;7.72;91.53;95852.50;1053165;28;20016;-47
2021/05/19 00:46:19;;;;;;;5.00;1.43;;;;;;;7.70;91.29;95849.25;1057229;28;20015;-46
2021/05/19 00:46:52;;;;;;;3.50;1.30;;;;;;;7.74;90.84;95848.69;1057234;28;20008;-47
2021/05/19 00:47:35;;;;;;;2.58;1.20;;;;;;;7.69;91.24;95847.66;1057083;28;20015;-46
2021/05/19 00:48:07;;;;;;;5.63;1.30;;;;;;;7.68;91.45;95846.00;1055303;28;20098;-47
2021/05/19 00:48:37;;;;;;;3.25;1.33;;;;;;;7.69;91.00;95853.69;1053201;28;20023;-47
2021/05/19 00:49:08;;;;;;;2.83;1.40;;;;;;;7.59;92.00;95854.00;1053229;28;20012;-46
2021/05/19 00:49:38;;;;;;;3.93;1.60;;;;;;;7.60;92.07;95849.53;1053361;28;20020;-47
2021/05/19 00:50:11;;;;;;;6.50;1.40;;;;;;;7.68;91.53;95852.06;1048856;28;20016;-48
2021/05/19 00:50:42;;;;;;;5.03;1.30;;;;;;;7.71;90.80;95849.06;1048682;28;20008;-46
2021/05/19 00:51:12;;;;;;;4.70;1.33;;;;;;;7.70;90.44;95844.00;1048805;28;20013;-46
2021/05/19 00:51:43;;;;;;;4.33;1.40;;;;;;;7.65;90.86;95852.41;1049695;28;20408;-49
2021/05/19 00:52:14;;;;;;;3.83;1.50;;;;;;;7.66;91.09;95848.81;1057124;28;20380;-48
2021/05/19 00:52:45;;;;;;;4.83;1.40;;;;;;;7.68;90.83;95851.25;1052990;28;20043;-45
2021/05/19 00:53:16;;;;;;;4.70;1.40;;;;;;;7.70;90.36;95857.09;1053319;28;20027;-47
2021/05/19 00:53:46;;;;;;;3.57;1.20;;;;;;;7.61;90.95;95857.22;1053382;28;20341;-46
2021/05/19 00:54:17;;;;;;;5.50;1.50;;;;;;;7.63;91.01;95855.22;1052991;28;20012;-45
2021/05/19 00:54:47;;;;;;;3.07;1.43;;;;;;;7.62;91.35;95858.03;1048834;28;20020;-47
2021/05/19 00:55:18;;;;;;;3.83;1.30;;;;;;;7.59;91.56;95858.41;1044681;28;20041;-46
2021/05/19 00:55:49;;;;;;;5.17;1.30;;;;;;;7.63;91.30;95857.03;1044769;28;20044;-47
2021/05/19 00:56:19;;;;;;;5.47;1.43;;;;;;;7.57;91.68;95863.00;1049041;28;20013;-47
2021/05/19 00:56:50;;;;;;;3.50;1.40;;;;;;;7.59;91.79;95859.22;1053087;28;20012;-47
2021/05/19 00:57:20;;;;;;;4.23;1.47;;;;;;;7.67;91.78;95867.97;1044847;28;20469;-50
2021/05/19 00:57:52;;;;;;;3.50;1.40;;;;;;;7.71;91.16;95856.94;1048661;28;20020;-48
2021/05/19 00:58:23;;;;;;;3.85;1.50;;;;;;;7.73;90.81;95854.94;1048739;28;20012;-46
2021/05/19 00:58:55;;;;;;;5.50;1.40;;;;;;;7.73;90.65;95867.22;1049160;28;20566;-46
2021/05/19 00:59:26;;;;;;;4.43;1.50;;;;;;;7.74;90.80;95858.38;1052925;28;20104;-50
2021/05/19 00:59:57;;;;;;;3.07;1.30;;;;;;;7.71;90.49;95856.94;1053153;28;20031;-47
2021/05/19 01:00:28;;;;;;;4.03;1.50;;;;;;;7.64;91.31;95861.28;1049036;28;20016;-49
2021/05/19 01:00:58;;;;;;;3.00;1.40;;;;;;;7.56;91.76;95861.38;1049154;28;20107;-45
2021/05/19 01:01:34;;;;;;;3.53;1.23;;;;;;;7.60;91.59;95860.81;1053176;28;20020;-46
2021/05/19 01:02:05;;;;;;;2.90;1.10;;;;;;;7.63;91.39;95859.66;1045727;28;20028;-47
2021/05/19 01:02:36;;;;;;;5.27;1.33;;;;;;;7.68;91.25;95862.53;1048795;28;20088;-47
2021/05/19 01:03:06;;;;;;;3.27;1.53;;;;;;;7.70;91.13;95864.97;1048894;28;20019;-46
2021/05/19 01:03:37;;;;;;;2.77;1.30;;;;;;;7.65;91.26;95853.25;1049815;28;20058;-46
2021/05/19 01:04:07;;;;;;;4.50;1.43;;;;;;;7.67;91.79;95860.09;1053459;28;20457;-46
2021/05/19 01:04:38;;;;;;;5.87;1.43;;;;;;;7.60;92.24;95858.22;1053313;28;20011;-46
2021/05/19 01:05:17;;;;;;;2.87;1.30;;;;;;;7.58;92.55;95856.78;1053267;28;20107;-46
2021/05/19 01:05:57;;;;;;;4.03;1.50;;;;;;;7.62;92.15;95863.28;1053330;28;20262;-45
2021/05/19 01:06:38;;;;;;;3.85;1.30;;;;;;;7.58;91.56;95864.66;1053089;28;20020;-47
2021/05/19 01:07:19;;;;;;;3.38;1.42;;;;;;;7.64;91.64;95866.53;1053099;28;20028;-45
2021/05/19 01:09:35;;;;;;;4.30;1.40;;;;;;;7.57;92.36;95870.88;1053452;28;20473;-47
2021/05/19 01:10:05;;;;;;;3.63;1.40;;;;;;;7.59;92.91;95858.41;1057467;28;20029;-45
2021/05/19 01:10:36;;;;;;;5.13;1.70;;;;;;;7.60;92.77;95873.13;1057318;28;20020;-45
2021/05/19 01:11:08;;;;;;;2.53;1.20;;;;;;;7.58;92.58;95860.22;1057227;28;20016;-47
2021/05/19 01:11:38;;;;;;;3.40;1.50;;;;;;;7.60;92.54;95865.28;1053058;28;20576;-48
2021/05/19 01:12:11;;;;;;;5.27;1.70;;;;;;;7.65;92.17;95863.72;1053083;28;20024;-49
2021/05/19 01:12:42;;;;;;;4.03;1.70;;;;;;;7.71;91.82;95863.97;1048832;28;20050;-49
2021/05/19 01:13:13;;;;;;;4.50;1.50;;;;;;;7.69;92.41;95866.78;1045177;28;20021;-45
2021/05/19 01:13:45;;;;;;;4.07;1.60;;;;;;;7.68;92.11;95867.78;1048919;28;20025;-46
2021/05/19 01:14:15;;;;;;;7.32;1.80;;;;;;;7.69;92.10;95864.16;1048610;28;20020;-45
2021/05/19 01:14:46;;;;;;;4.47;1.53;;;;;;;7.73;91.89;95864.59;1045382;28;20021;-45
2021/05/19 01:15:16;;;;;;;3.67;1.30;;;;;;;7.73;92.01;95860.19;1053207;28;20026;-51
2021/05/19 01:15:47;;;;;;;3.47;1.40;;;;;;;7.66;92.02;95867.16;1052920;28;20035;-47
2021/05/19 01:16:17;;;;;;;4.17;1.40;;;;;;;7.65;91.99;95866.34;1052670;28;20408;-47
2021/05/19 01:16:48;;;;;;;4.90;1.60;;;;;;;7.69;91.92;95866.78;1057305;28;20019;-47
2021/05/19 01:17:19;;;;;;;5.50;1.40;;;;;;;7.68;91.81;95869.59;1053043;28;20092;-45
2021/05/19 01:17:49;;;;;;;3.30;1.58;;;;;;;7.64;92.11;95867.34;1053153;28;20024;-46
2021/05/19 01:18:20;;;;;;;4.37;1.30;;;;;;;7.67;91.91;95863.56;1052863;28;20016;-46
2021/05/19 01:18:50;;;;;;;3.47;1.40;;;;;;;7.73;91.77;95872.47;1053121;28;20020;-46
2021/05/19 01:19:21;;;;;;;3.50;1.33;;;;;;;7.73;91.53;95862.81;1052991;28;20062;-46
2021/05/19 01:19:52;;;;;;;3.53;1.40;;;;;;;7.59;92.12;95859.22;1040763;28;20022;-45
2021/05/19 01:20:23;;;;;;;5.05;1.60;;;;;;;7.67;92.33;95863.56;1040669;28;20498;-45
2021/05/19 01:20:56;;;;;;;3.53;1.60;;;;;;;7.68;92.15;95864.34;1040924;28;20030;-46
2021/05/19 01:21:27;;;;;;;5.38;1.52;;;;;;;7.62;92.49;95866.72;1045954;28;20029;-46
2021/05/19 01:22:06;;;;;;;4.17;1.63;;;;;;;7.57;93.24;95866.44;1052812;28;20096;-45
2021/05/19 01:22:36;;;;;;;6.78;1.70;;;;;;;7.58;93.27;95870.69;1053367;28;20042;-46
2021/05/19 01:23:07;;;;;;;3.73;1.50;;;;;;;7.67;92.65;95867.97;1053129;28;20465;-46
2021/05/19 01:23:38;;;;;;;3.97;1.60;;;;;;;7.65;92.84;95868.97;1052510;28;20119;-47
2021/05/19 01:24:08;;;;;;;4.33;1.60;;;;;;;7.64;93.02;95861.28;1047728;28;20081;-47
2021/05/19 01:24:39;;;;;;;3.50;1.67;;;;;;;7.67;93.37;95862.72;1043971;28;20056;-46
2021/05/19 01:25:10;;;;;;;6.63;1.70;;;;;;;7.58;92.95;95868.06;1043993;28;20016;-46
2021/05/19 01:25:41;;;;;;;2.83;1.45;;;;;;;7.59;92.96;95859.22;1049119;28;20043;-46
2021/05/19 01:26:13;;;;;;;3.47;1.40;;;;;;;7.66;92.68;95861.91;1048746;28;20064;-48
2021/05/19 01:26:43;;;;;;;3.45;1.50;;;;;;;7.60;92.67;95865.28;1044529;28;20031;-46
2021/05/19 01:27:14;;;;;;;4.00;1.80;;;;;;;7.62;92.63;95858.03;1044666;28;20043;-45
2021/05/19 01:27:55;;;;;;;3.50;1.40;;;;;;;7.62;92.24;95861.47;1044837;28;20029;-46
2021/05/19 01:28:25;;;;;;;3.83;1.50;;;;;;;7.64;92.01;95864.72;1050697;28;20565;-45
2021/05/19 01:28:56;;;;;;;3.13;1.50;;;;;;;7.66;92.34;95869.78;1053263;28;20108;-47
2021/05/19 01:29:26;;;;;;;6.23;1.80;;;;;;;7.71;91.95;95870.03;1053513;28;20016;-46
2021/05/19 01:29:58;;;;;;;3.60;1.33;;;;;;;7.75;91.59;95860.00;1053358;28;20026;-45
2021/05/19 01:30:29;;;;;;;3.90;1.45;;;;;;;7.60;92.00;95863.44;1053329;28;20047;-46
2021/05/19 01:31:00;;;;;;;5.18;1.50;;;;;;;7.60;92.47;95862.66;1053140;28;20049;-45
2021/05/19 01:31:30;;;;;;;3.63;1.50;;;;;;;7.60;92.80;95862.66;1053105;28;20097;-46
2021/05/19 01:32:00;;;;;;;3.67;1.50;;;;;;;7.55;92.92;95857.16;1053290;28;20049;-45
2021/05/19 01:32:31;;;;;;;3.63;1.43;;;;;;;7.57;92.91;95861.19;1053248;28;20476;-47
2021/05/19 01:33:01;;;;;;;2.87;1.20;;;;;;;7.59;92.75;95858.41;1053135;28;20486;-46
2021/05/19 01:33:32;;;;;;;4.57;1.50;;;;;;;7.61;92.78;95859.84;1053241;28;20047;-46
2021/05/19 01:34:03;;;;;;;4.30;1.40;;;;;;;7.62;92.53;95869.34;1053234;28;20012;-48
2021/05/19 01:34:35;;;;;;;3.72;1.40;;;;;;;7.63;92.74;95872.75;1053071;28;20023;-47
2021/05/19 01:35:06;;;;;;;3.13;1.45;;;;;;;7.49;93.18;95865.75;1053607;28;20409;-46
2021/05/19 01:35:37;;;;;;;4.38;1.65;;;;;;;7.46;93.67;95862.47;1053539;28;20017;-47
2021/05/19 01:36:07;;;;;;;4.70;1.43;;;;;;;7.50;93.72;95869.97;1053555;28;20070;-46
2021/05/19 01:36:38;;;;;;;6.20;1.43;;;;;;;7.50;93.47;95867.34;1053441;28;20014;-47
2021/05/19 01:37:12;;;;;;;3.23;1.47;;;;;;;7.55;93.21;95868.44;1053093;28;20020;-47
2021/05/19 01:37:44;;;;;;;4.03;1.40;;;;;;;7.52;93.24;95871.41;1053008;28;20027;-46
2021/05/19 01:38:14;;;;;;;5.03;1.30;;;;;;;7.49;93.92;95865.75;1053059;28;20053;-47
2021/05/19 01:38:45;;;;;;;5.30;1.57;;;;;;;7.51;93.94;95867.16;1053613;28;20116;-47
2021/05/19 01:39:15;;;;;;;2.80;1.23;;;;;;;7.60;93.27;95868.69;1057182;28;20023;-46
2021/05/19 01:39:46;;;;;;;3.50;1.60;;;;;;;7.70;92.57;95870.22;1057183;28;20171;-49
2021/05/19 01:40:22;;;;;;;4.77;1.77;;;;;;;7.68;92.38;95869.59;1052966;28;20016;-45
2021/05/19 01:40:52;;;;;;;3.75;1.75;;;;;;;7.54;92.81;95866.81;1052929;28;20467;-47
2021/05/19 01:41:23;;;;;;;5.17;1.47;;;;;;;7.48;93.45;95872.78;1053050;28;20039;-44
2021/05/19 01:41:53;;;;;;;4.80;1.60;;;;;;;7.42;94.30;95870.88;1048763;28;20020;-45
2021/05/19 01:42:24;;;;;;;4.33;1.70;;;;;;;7.36;94.11;95867.16;1048719;28;20020;-45
2021/05/19 01:42:54;;;;;;;3.97;1.40;;;;;;;7.34;94.29;95865.75;1048882;28;20110;-46
2021/05/19 01:43:31;;;;;;;4.87;1.63;;;;;;;7.32;95.07;95871.16;1051803;28;20126;-46
2021/05/19 01:44:12;;;;;;;4.18;1.48;;;;;;;7.40;94.91;95865.81;1053249;28;20050;-46
2021/05/19 01:44:42;;;;;;;4.65;1.50;;;;;;;7.47;94.46;95871.16;1053380;28;20020;-45
2021/05/19 01:45:14;;;;;;;3.77;1.50;;;;;;;7.50;93.94;95870.81;1052959;28;20373;-46
2021/05/19 01:45:44;;;;;;;6.25;1.60;;;;;;;7.45;94.10;95868.72;1053057;28;20030;-46
2021/05/19 01:46:15;;;;;;;4.03;1.87;;;;;;;7.50;94.15;95868.19;1053229;28;20042;-47
2021/05/19 01:46:46;;;;;;;4.10;1.47;;;;;;;7.51;93.71;95867.16;1053353;28;20023;-46
2021/05/19 01:47:16;;;;;;;5.83;1.93;;;;;;;7.50;93.92;95869.97;1052951;28;20016;-47
2021/05/19 01:47:48;;;;;;;4.07;1.83;;;;;;;7.51;94.20;95866.38;1048724;28;20512;-47
2021/05/19 01:48:19;;;;;;;4.07;1.63;;;;;;;7.58;93.80;95867.28;1044612;28;20012;-46
2021/05/19 01:48:53;;;;;;;3.60;1.90;;;;;;;7.56;93.61;95866.63;1040818;28;20112;-49
2021/05/19 01:49:29;;;;;;;4.10;1.65;;;;;;;7.54;93.76;95861.56;1045500;28;20021;-46
2021/05/19 01:50:00;;;;;;;5.03;1.60;;;;;;;7.60;93.67;95871.31;1050194;28;20410;-47
2021/05/19 01:50:32;;;;;;;5.60;1.77;;;;;;;7.57;93.68;95865.63;1054249;28;20046;-48
2021/05/19 01:51:04;;;;;;;7.13;1.80;;;;;;;7.46;94.34;95864.28;1057035;28;20024;-50
2021/05/19 01:51:37;;;;;;;6.35;1.77;;;;;;;7.42;94.78;95860.41;1057138;28;20030;-47
2021/05/19 01:52:08;;;;;;;4.60;1.70;;;;;;;7.47;94.58;95871.97;1057035;28;20569;-47
2021/05/19 01:52:41;;;;;;;4.25;1.88;;;;;;;7.50;94.28;95869.97;1056153;28;20047;-46
2021/05/19 01:53:12;;;;;;;3.55;1.52;;;;;;;7.50;94.77;95872.59;1052867;28;20365;-47
2021/05/19 01:53:42;;;;;;;5.90;1.97;;;;;;;7.52;94.40;95868.00;1052861;28;20077;-45
2021/05/19 01:54:13;;;;;;;4.27;1.70;;;;;;;7.46;94.49;95867.72;1048408;28;20020;-47
2021/05/19 01:54:45;;;;;;;4.00;1.47;;;;;;;7.47;94.88;95865.94;1044555;28;20070;-46
2021/05/19 01:55:17;;;;;;;5.63;1.63;;;;;;;7.55;94.43;95867.63;1040524;28;20033;-47
2021/05/19 01:55:47;;;;;;;2.85;1.40;;;;;;;7.52;94.48;95871.41;1041021;28;20021;-48
2021/05/19 01:56:18;;;;;;;3.37;1.60;;;;;;;7.58;94.30;95864.66;1045032;28;20044;-48
2021/05/19 01:56:48;;;;;;;5.30;1.50;;;;;;;7.60;94.57;95865.28;1040987;28;20017;-48
2021/05/19 01:57:19;;;;;;;7.67;1.67;;;;;;;7.58;94.12;95864.66;1040464;28;20632;-46
2021/05/19 01:57:50;;;;;;;4.70;1.80;;;;;;;7.53;94.21;95867.81;1036207;28;20029;-47
2021/05/19 01:58:20;;;;;;;3.47;1.50;;;;;;;7.55;94.35;95868.44;1032535;28;20078;-48
2021/05/19 01:58:51;;;;;;;3.38;1.48;;;;;;;7.58;94.22;95872.50;1040669;28;20029;-47
2021/05/19 01:59:22;;;;;;;3.63;1.53;;;;;;;7.64;93.97;95869.97;1040402;28;20056;-46
2021/05/19 01:59:53;;;;;;;3.30;1.43;;;;;;;7.62;93.96;95869.34;1040590;28;20485;-48
2021/05/19 02:00:25;;;;;;;4.07;1.50;;;;;;;7.62;93.73;95869.34;1040744;28;20022;-49
2021/05/19 02:00:56;;;;;;;4.22;1.85;;;;;;;7.58;94.26;95870.69;1045016;28;20023;-46
2021/05/19 02:01:26;;;;;;;4.83;1.50;;;;;;;7.64;93.96;95869.16;1040555;28;20017;-45
2021/05/19 02:01:57;;;;;;;4.33;1.87;;;;;;;7.51;94.19;95872.41;1040638;28;20025;-46
2021/05/19 02:02:27;;;;;;;3.53;1.80;;;;;;;7.57;94.53;95871.69;1044720;28;20048;-45
2021/05/19 02:02:59;;;;;;;3.53;1.43;;;;;;;7.48;94.87;95867.53;1040636;28;20021;-46
2021/05/19 02:03:30;;;;;;;4.03;1.60;;;;;;;7.43;95.15;95869.91;1048702;28;20044;-46
2021/05/19 02:04:04;;;;;;;3.67;1.60;;;;;;;7.44;95.40;95869.72;1048648;28;20028;-46
2021/05/19 02:04:38;;;;;;;3.78;1.58;;;;;;;7.45;95.36;95867.91;1048670;28;20020;-45
2021/05/19 02:05:10;;;;;;;4.85;1.63;;;;;;;7.54;95.12;95871.25;1044537;28;20065;-47
2021/05/19 02:05:41;;;;;;;3.88;1.70;;;;;;;7.52;95.17;95870.63;1044499;28;20505;-46
2021/05/19 02:06:11;;;;;;;4.95;1.70;;;;;;;7.60;95.01;95863.44;1044466;28;20056;-47
2021/05/19 02:06:56;;;;;;;4.77;1.60;;;;;;;7.53;94.87;95869.59;1045132;28;20087;-45
2021/05/19 02:07:27;;;;;;;3.40;1.73;;;;;;;7.43;95.48;95869.91;1048715;28;20062;-46
2021/05/19 02:07:57;;;;;;;4.73;1.50;;;;;;;7.42;95.53;95869.06;1048786;28;20027;-47
2021/05/19 02:08:28;;;;;;;3.60;1.63;;;;;;;7.40;96.22;95871.06;1048915;28;20020;-47
2021/05/19 02:08:58;;;;;;;4.00;1.50;;;;;;;7.47;95.65;95869.34;1048917;28;20024;-48
2021/05/19 02:09:29;;;;;;;4.40;1.87;;;;;;;7.49;95.71;95870.97;1048963;28;20381;-49
2021/05/19 02:09:59;;;;;;;5.00;1.60;;;;;;;7.42;95.53;95858.59;1049074;28;20029;-46
2021/05/19 02:10:30;;;;;;;5.13;1.77;;;;;;;7.52;95.46;95868.00;1049017;28;20377;-50
2021/05/19 02:11:00;;;;;;;3.53;1.87;;;;;;;7.44;95.71;95866.28;1049024;28;20023;-50
2021/05/19 02:11:32;;;;;;;3.33;1.58;;;;;;;7.47;95.98;95866.72;1044634;28;20024;-47
2021/05/19 02:12:03;;;;;;;6.17;1.73;;;;;;;7.44;96.02;95867.09;1044569;28;20035;-52
2021/05/19 02:12:33;;;;;;;6.23;2.00;;;;;;;7.43;96.15;95869.91;1044515;28;20027;-47
2021/05/19 02:13:06;;;;;;;5.07;2.10;;;;;;;7.47;96.07;95871.97;1044840;28;20028;-47
2021/05/19 02:13:36;;;;;;;3.95;1.70;;;;;;;7.41;96.06;95866.63;1048907;28;20099;-49
2021/05/19 02:14:07;;;;;;;4.07;1.70;;;;;;;7.45;96.19;95876.59;1048974;28;20070;-48
2021/05/19 02:14:37;;;;;;;4.67;1.67;;;;;;;7.52;95.59;95874.03;1048888;28;20024;-47
2021/05/19 02:15:09;;;;;;;3.80;1.70;;;;;;;7.54;95.53;95873.84;1049010;28;20504;-45
2021/05/19 02:15:39;;;;;;;4.45;1.80;;;;;;;7.49;96.09;95878.84;1048874;28;20445;-46
2021/05/19 02:16:10;;;;;;;5.83;1.93;;;;;;;7.46;96.39;95872.94;1048612;28;20070;-47
2021/05/19 02:16:42;;;;;;;3.83;1.75;;;;;;;7.46;96.41;95875.56;1048571;28;20036;-47
2021/05/19 02:17:12;;;;;;;3.90;1.60;;;;;;;7.39;96.99;95879.09;1044498;28;20029;-49
2021/05/19 02:17:43;;;;;;;4.67;1.60;;;;;;;7.46;97.11;95872.16;1044918;28;20056;-48
2021/05/19 02:18:14;;;;;;;4.80;1.60;;;;;;;7.47;96.56;95877.22;1044481;28;20021;-49
2021/05/19 02:18:45;;;;;;;5.10;1.90;;;;;;;7.44;97.17;95876.78;1044732;28;20024;-49
2021/05/19 02:19:15;;;;;;;6.57;1.73;;;;;;;7.46;97.02;95878.19;1048765;28;20051;-46
2021/05/19 02:19:46;;;;;;;3.43;1.67;;;;;;;7.46;97.09;95875.56;1048698;28;20032;-47
2021/05/19 02:20:19;;;;;;;4.93;1.80;;;;;;;7.45;97.33;95883.63;1048961;28;20107;-47
2021/05/19 02:20:49;;;;;;;3.65;1.65;;;;;;;7.45;97.30;95879.22;1049034;28;20027;-47
2021/05/19 02:21:20;;;;;;;3.97;1.90;;;;;;;7.52;97.31;95875.84;1049052;28;20076;-46
2021/05/19 02:21:50;;;;;;;3.63;1.80;;;;;;;7.53;96.61;95875.69;1048998;28;20020;-48
2021/05/19 02:22:23;;;;;;;5.03;1.83;;;;;;;7.57;96.78;95879.53;1048920;28;20012;-46
2021/05/19 02:22:54;;;;;;;5.43;1.52;;;;;;;7.63;96.75;95875.38;1048854;28;20031;-45
2021/05/19 02:23:24;;;;;;;4.33;1.70;;;;;;;7.54;97.09;95877.28;1048691;28;20074;-46
2021/05/19 02:23:55;;;;;;;3.60;1.50;;;;;;;7.47;97.67;95884.25;1044526;28;20104;-45
2021/05/19 02:24:26;;;;;;;3.60;1.83;;;;;;;7.45;97.85;95878.38;1044432;28;20021;-47
2021/05/19 02:24:56;;;;;;;4.87;1.90;;;;;;;7.49;97.66;95877.03;1044653;28;20025;-47
2021/05/19 02:25:27;;;;;;;5.20;2.10;;;;;;;7.52;97.81;95883.72;1048758;28;20503;-49
2021/05/19 02:25:59;;;;;;;6.00;1.80;;;;;;;7.51;97.58;95877.66;1049002;28;20017;-46
2021/05/19 02:26:29;;;;;;;3.45;1.80;;;;;;;7.43;98.33;95881.16;1048937;28;20020;-46
2021/05/19 02:27:00;;;;;;;3.97;1.80;;;;;;;7.47;98.13;95884.25;1048809;28;20458;-46
2021/05/19 02:27:30;;;;;;;3.97;1.63;;;;;;;7.46;98.24;95878.19;1048831;28;20020;-47
2021/05/19 02:28:01;;;;;;;3.47;1.63;;;;;;;7.37;98.51;95884.53;1044486;28;20108;-46
2021/05/19 02:28:31;;;;;;;4.97;1.70;;;;;;;7.32;98.59;95884.25;1044468;28;20021;-46
2021/05/19 02:29:02;;;;;;;4.43;1.77;;;;;;;7.37;98.95;95881.09;1044513;28;20013;-46
2021/05/19 02:29:33;;;;;;;5.57;2.03;;;;;;;7.37;98.95;95889.75;1044767;28;20019;-45
2021/05/19 02:30:04;;;;;;;5.33;1.90;;;;;;;7.29;99.34;95882.00;1050014;28;20243;-46
2021/05/19 02:30:35;;;;;;;4.40;1.92;;;;;;;7.25;100.00;95885.97;1053081;28;20069;-46
2021/05/19 02:31:05;;;;;;;4.37;1.70;;;;;;;7.27;100.00;95889.19;1053307;28;20061;-47